sensor_id;sensor_type;location;lat;lon;timestamp;pressure;altitude;pressure_sealevel;temperature
64947;BMP280;51469;52.150;4.682;2023-03-05T00:01:36;102555.88;;;8.96
64947;BMP280;51469;52.150;4.682;2023-03-05T00:04:03;102555.88;;;8.96
64947;BMP280;51469;52.150;4.682;2023-03-05T00:06:30;102541.72;;;8.94
64947;BMP280;51469;52.150;4.682;2023-03-05T00:08:56;102539.78;;;8.86
64947;BMP280;51469;52.150;4.682;2023-03-05T00:11:23;102522.53;;;8.77
64947;BMP280;51469;52.150;4.682;2023-03-05T00:13:52;102542.50;;;8.78
64947;BMP280;51469;52.150;4.682;2023-03-05T00:16:17;102529.31;;;8.71
64947;BMP280;51469;52.150;4.682;2023-03-05T00:18:44;102531.88;;;8.68
64947;BMP280;51469;52.150;4.682;2023-03-05T00:21:22;102531.38;;;8.74
64947;BMP280;51469;52.150;4.682;2023-03-05T00:23:48;102533.97;;;8.79
64947;BMP280;51469;52.150;4.682;2023-03-05T00:26:16;102530.09;;;8.80
64947;BMP280;51469;52.150;4.682;2023-03-05T00:28:41;102524.63;;;8.80
64947;BMP280;51469;52.150;4.682;2023-03-05T00:31:06;102522.38;;;8.82
64947;BMP280;51469;52.150;4.682;2023-03-05T00:33:32;102528.00;;;8.86
64947;BMP280;51469;52.150;4.682;2023-03-05T00:35:57;102528.66;;;8.91
64947;BMP280;51469;52.150;4.682;2023-03-05T00:38:25;102530.75;;;8.94
64947;BMP280;51469;52.150;4.682;2023-03-05T00:40:51;102522.22;;;8.87
64947;BMP280;51469;52.150;4.682;2023-03-05T00:43:16;102530.25;;;8.92
64947;BMP280;51469;52.150;4.682;2023-03-05T00:45:41;102522.38;;;8.82
64947;BMP280;51469;52.150;4.682;2023-03-05T00:48:08;102515.28;;;8.73
64947;BMP280;51469;52.150;4.682;2023-03-05T00:50:33;102514.00;;;8.70
64947;BMP280;51469;52.150;4.682;2023-03-05T00:52:58;102507.72;;;8.61
64947;BMP280;51469;52.150;4.682;2023-03-05T00:55:23;102501.75;;;8.59
64947;BMP280;51469;52.150;4.682;2023-03-05T00:57:49;102512.69;;;8.59
64947;BMP280;51469;52.150;4.682;2023-03-05T01:00:15;102504.47;;;8.59
64947;BMP280;51469;52.150;4.682;2023-03-05T01:02:41;102501.25;;;8.57
64947;BMP280;51469;52.150;4.682;2023-03-05T01:05:08;102490.13;;;8.54
64947;BMP280;51469;52.150;4.682;2023-03-05T01:07:34;102500.16;;;8.58
64947;BMP280;51469;52.150;4.682;2023-03-05T01:09:59;102496.28;;;8.59
64947;BMP280;51469;52.150;4.682;2023-03-05T01:12:25;102493.03;;;8.57
64947;BMP280;51469;52.150;4.682;2023-03-05T01:14:50;102490.63;;;8.56
64947;BMP280;51469;52.150;4.682;2023-03-05T01:17:15;102488.88;;;8.60
64947;BMP280;51469;52.150;4.682;2023-03-05T01:19:41;102491.13;;;8.66
64947;BMP280;51469;52.150;4.682;2023-03-05T01:22:06;102490.81;;;8.76
64947;BMP280;51469;52.150;4.682;2023-03-05T01:24:31;102497.75;;;8.91
64947;BMP280;51469;52.150;4.682;2023-03-05T01:26:57;102486.66;;;9.04
64947;BMP280;51469;52.150;4.682;2023-03-05T01:29:23;102492.75;;;9.18
64947;BMP280;51469;52.150;4.682;2023-03-05T01:31:48;102473.59;;;9.18
64947;BMP280;51469;52.150;4.682;2023-03-05T01:34:14;102484.50;;;9.35
64947;BMP280;51469;52.150;4.682;2023-03-05T01:36:41;102460.03;;;9.30
64947;BMP280;51469;52.150;4.682;2023-03-05T01:39:07;102472.41;;;9.36
64947;BMP280;51469;52.150;4.682;2023-03-05T01:41:32;102465.47;;;9.39
64947;BMP280;51469;52.150;4.682;2023-03-05T01:43:58;102462.41;;;9.40
64947;BMP280;51469;52.150;4.682;2023-03-05T01:46:37;102462.69;;;9.47
64947;BMP280;51469;52.150;4.682;2023-03-05T01:49:35;102457.25;;;9.39
64947;BMP280;51469;52.150;4.682;2023-03-05T01:54:35;102441.88;;;9.17
64947;BMP280;51469;52.150;4.682;2023-03-05T01:57:08;102434.44;;;9.09
64947;BMP280;51469;52.150;4.682;2023-03-05T01:59:36;102432.84;;;9.08
64947;BMP280;51469;52.150;4.682;2023-03-05T02:02:04;102427.53;;;9.03
64947;BMP280;51469;52.150;4.682;2023-03-05T02:04:38;102427.69;;;8.98
64947;BMP280;51469;52.150;4.682;2023-03-05T02:07:06;102412.91;;;8.91
64947;BMP280;51469;52.150;4.682;2023-03-05T02:09:31;102410.00;;;8.87
64947;BMP280;51469;52.150;4.682;2023-03-05T02:11:57;102407.41;;;8.82
64947;BMP280;51469;52.150;4.682;2023-03-05T02:14:23;102398.75;;;8.80
64947;BMP280;51469;52.150;4.682;2023-03-05T02:16:50;102398.41;;;8.73
64947;BMP280;51469;52.150;4.682;2023-03-05T02:19:15;102406.00;;;8.68
64947;BMP280;51469;52.150;4.682;2023-03-05T02:21:44;102389.25;;;8.61
64947;BMP280;51469;52.150;4.682;2023-03-05T02:24:14;102386.50;;;8.52
64947;BMP280;51469;52.150;4.682;2023-03-05T02:26:41;102382.97;;;8.43
64947;BMP280;51469;52.150;4.682;2023-03-05T02:29:09;102380.88;;;8.40
64947;BMP280;51469;52.150;4.682;2023-03-05T02:31:35;102383.59;;;8.40
64947;BMP280;51469;52.150;4.682;2023-03-05T02:34:03;102380.41;;;8.38
64947;BMP280;51469;52.150;4.682;2023-03-05T02:36:29;102386.81;;;8.42
64947;BMP280;51469;52.150;4.682;2023-03-05T02:38:54;102371.06;;;8.39
64947;BMP280;51469;52.150;4.682;2023-03-05T02:41:22;102370.09;;;8.35
64947;BMP280;51469;52.150;4.682;2023-03-05T02:43:48;102358.19;;;8.31
64947;BMP280;51469;52.150;4.682;2023-03-05T02:46:14;102351.13;;;8.30
64947;BMP280;51469;52.150;4.682;2023-03-05T02:48:39;102359.78;;;8.32
64947;BMP280;51469;52.150;4.682;2023-03-05T02:51:06;102351.44;;;8.37
64947;BMP280;51469;52.150;4.682;2023-03-05T02:53:31;102345.31;;;8.40
64947;BMP280;51469;52.150;4.682;2023-03-05T02:55:57;102346.28;;;8.44
64947;BMP280;51469;52.150;4.682;2023-03-05T02:58:22;102343.41;;;8.49
64947;BMP280;51469;52.150;4.682;2023-03-05T03:00:48;102339.53;;;8.50
64947;BMP280;51469;52.150;4.682;2023-03-05T03:03:13;102339.66;;;8.54
64947;BMP280;51469;52.150;4.682;2023-03-05T03:05:39;102331.31;;;8.50
64947;BMP280;51469;52.150;4.682;2023-03-05T03:08:04;102337.41;;;8.64
64947;BMP280;51469;52.150;4.682;2023-03-05T03:10:30;102331.63;;;8.66
64947;BMP280;51469;52.150;4.682;2023-03-05T03:12:55;102328.72;;;8.79
64947;BMP280;51469;52.150;4.682;2023-03-05T03:15:21;102329.19;;;8.81
64947;BMP280;51469;52.150;4.682;2023-03-05T03:17:46;102322.41;;;8.87
64947;BMP280;51469;52.150;4.682;2023-03-05T03:20:13;102324.31;;;8.95
64947;BMP280;51469;52.150;4.682;2023-03-05T03:22:41;102324.31;;;9.04
64947;BMP280;51469;52.150;4.682;2023-03-05T03:25:08;102329.16;;;8.90
64947;BMP280;51469;52.150;4.682;2023-03-05T03:27:34;102315.75;;;9.05
64947;BMP280;51469;52.150;4.682;2023-03-05T03:30:00;102308.50;;;9.09
64947;BMP280;51469;52.150;4.682;2023-03-05T03:32:29;102313.59;;;9.19
64947;BMP280;51469;52.150;4.682;2023-03-05T03:34:54;102306.84;;;9.25
64947;BMP280;51469;52.150;4.682;2023-03-05T03:37:20;102302.84;;;9.14
64947;BMP280;51469;52.150;4.682;2023-03-05T03:39:45;102303.59;;;9.23
64947;BMP280;51469;52.150;4.682;2023-03-05T03:42:10;102285.84;;;9.29
64947;BMP280;51469;52.150;4.682;2023-03-05T03:44:36;102289.66;;;9.46
64947;BMP280;51469;52.150;4.682;2023-03-05T03:47:01;102284.44;;;9.52
64947;BMP280;51469;52.150;4.682;2023-03-05T03:49:27;102282.97;;;9.55
64947;BMP280;51469;52.150;4.682;2023-03-05T03:51:53;102279.41;;;9.54
64947;BMP280;51469;52.150;4.682;2023-03-05T03:54:19;102280.22;;;9.55
64947;BMP280;51469;52.150;4.682;2023-03-05T03:56:45;102279.38;;;9.43
64947;BMP280;51469;52.150;4.682;2023-03-05T03:59:11;102285.09;;;9.49
64947;BMP280;51469;52.150;4.682;2023-03-05T04:01:37;102284.63;;;9.47
64947;BMP280;51469;52.150;4.682;2023-03-05T04:04:03;102273.94;;;9.54
64947;BMP280;51469;52.150;4.682;2023-03-05T04:06:29;102276.00;;;9.57
64947;BMP280;51469;52.150;4.682;2023-03-05T04:08:55;102265.34;;;9.65
64947;BMP280;51469;52.150;4.682;2023-03-05T04:11:21;102262.78;;;9.60
64947;BMP280;51469;52.150;4.682;2023-03-05T04:13:47;102269.03;;;9.69
64947;BMP280;51469;52.150;4.682;2023-03-05T04:16:13;102271.25;;;9.75
64947;BMP280;51469;52.150;4.682;2023-03-05T04:18:38;102259.13;;;9.76
64947;BMP280;51469;52.150;4.682;2023-03-05T04:21:04;102260.44;;;9.79
64947;BMP280;51469;52.150;4.682;2023-03-05T04:23:30;102262.53;;;9.73
64947;BMP280;51469;52.150;4.682;2023-03-05T04:25:55;102260.00;;;9.68
64947;BMP280;51469;52.150;4.682;2023-03-05T04:28:21;102265.22;;;9.82
64947;BMP280;51469;52.150;4.682;2023-03-05T04:30:46;102246.75;;;9.91
64947;BMP280;51469;52.150;4.682;2023-03-05T04:33:11;102252.53;;;9.98
64947;BMP280;51469;52.150;4.682;2023-03-05T04:35:37;102250.25;;;10.00
64947;BMP280;51469;52.150;4.682;2023-03-05T04:38:02;102240.09;;;10.00
64947;BMP280;51469;52.150;4.682;2023-03-05T04:40:28;102232.84;;;9.96
64947;BMP280;51469;52.150;4.682;2023-03-05T04:42:53;102237.63;;;9.87
64947;BMP280;51469;52.150;4.682;2023-03-05T04:45:19;102234.47;;;9.76
64947;BMP280;51469;52.150;4.682;2023-03-05T04:47:44;102243.41;;;9.65
64947;BMP280;51469;52.150;4.682;2023-03-05T04:50:10;102247.72;;;9.54
64947;BMP280;51469;52.150;4.682;2023-03-05T04:52:44;102237.13;;;9.43
64947;BMP280;51469;52.150;4.682;2023-03-05T04:55:10;102227.69;;;9.32
64947;BMP280;51469;52.150;4.682;2023-03-05T04:57:36;102232.03;;;9.33
64947;BMP280;51469;52.150;4.682;2023-03-05T05:00:08;102230.16;;;9.25
64947;BMP280;51469;52.150;4.682;2023-03-05T05:02:41;102228.66;;;9.28
64947;BMP280;51469;52.150;4.682;2023-03-05T05:05:09;102216.94;;;9.27
64947;BMP280;51469;52.150;4.682;2023-03-05T05:07:35;102219.00;;;9.30
64947;BMP280;51469;52.150;4.682;2023-03-05T05:10:00;102223.31;;;9.31
64947;BMP280;51469;52.150;4.682;2023-03-05T05:12:29;102219.47;;;9.32
64947;BMP280;51469;52.150;4.682;2023-03-05T05:14:56;102215.72;;;9.37
64947;BMP280;51469;52.150;4.682;2023-03-05T05:17:21;102212.66;;;9.38
64947;BMP280;51469;52.150;4.682;2023-03-05T05:19:47;102206.34;;;9.38
64947;BMP280;51469;52.150;4.682;2023-03-05T05:22:13;102180.16;;;9.28
64947;BMP280;51469;52.150;4.682;2023-03-05T05:24:38;102198.88;;;9.26
64947;BMP280;51469;52.150;4.682;2023-03-05T05:27:04;102195.41;;;9.17
64947;BMP280;51469;52.150;4.682;2023-03-05T05:29:29;102197.19;;;9.13
64947;BMP280;51469;52.150;4.682;2023-03-05T05:31:54;102195.78;;;9.07
64947;BMP280;51469;52.150;4.682;2023-03-05T05:34:20;102190.69;;;8.97
64947;BMP280;51469;52.150;4.682;2023-03-05T05:36:46;102181.38;;;8.90
64947;BMP280;51469;52.150;4.682;2023-03-05T05:39:11;102173.66;;;8.83
64947;BMP280;51469;52.150;4.682;2023-03-05T05:41:36;102178.22;;;8.79
64947;BMP280;51469;52.150;4.682;2023-03-05T05:44:02;102176.44;;;8.75
64947;BMP280;51469;52.150;4.682;2023-03-05T05:46:27;102172.91;;;8.74
64947;BMP280;51469;52.150;4.682;2023-03-05T05:48:53;102178.56;;;8.69
64947;BMP280;51469;52.150;4.682;2023-03-05T05:51:20;102166.19;;;8.63
64947;BMP280;51469;52.150;4.682;2023-03-05T05:53:46;102165.06;;;8.64
64947;BMP280;51469;52.150;4.682;2023-03-05T05:56:13;102167.31;;;8.62
64947;BMP280;51469;52.150;4.682;2023-03-05T05:58:40;102160.28;;;8.61
64947;BMP280;51469;52.150;4.682;2023-03-05T06:01:13;102171.97;;;8.70
64947;BMP280;51469;52.150;4.682;2023-03-05T06:03:39;102166.78;;;8.77
64947;BMP280;51469;52.150;4.682;2023-03-05T06:06:16;102159.50;;;8.81
64947;BMP280;51469;52.150;4.682;2023-03-05T06:08:42;102168.50;;;8.90
64947;BMP280;51469;52.150;4.682;2023-03-05T06:11:07;102162.34;;;8.93
64947;BMP280;51469;52.150;4.682;2023-03-05T06:13:33;102170.06;;;9.00
64947;BMP280;51469;52.150;4.682;2023-03-05T06:16:01;102165.84;;;9.02
64947;BMP280;51469;52.150;4.682;2023-03-05T06:18:27;102173.50;;;9.17
64947;BMP280;51469;52.150;4.682;2023-03-05T06:20:57;102155.72;;;9.23
64947;BMP280;51469;52.150;4.682;2023-03-05T06:23:24;102155.06;;;9.26
64947;BMP280;51469;52.150;4.682;2023-03-05T06:25:50;102161.75;;;9.37
64947;BMP280;51469;52.150;4.682;2023-03-05T06:28:15;102162.03;;;9.44
64947;BMP280;51469;52.150;4.682;2023-03-05T06:30:41;102156.66;;;9.48
64947;BMP280;51469;52.150;4.682;2023-03-05T06:33:06;102156.00;;;9.51
64947;BMP280;51469;52.150;4.682;2023-03-05T06:35:32;102157.41;;;9.36
64947;BMP280;51469;52.150;4.682;2023-03-05T06:37:57;102160.59;;;9.38
64947;BMP280;51469;52.150;4.682;2023-03-05T06:40:23;102153.97;;;9.19
64947;BMP280;51469;52.150;4.682;2023-03-05T06:42:48;102153.75;;;9.32
64947;BMP280;51469;52.150;4.682;2023-03-05T06:45:13;102153.75;;;9.53
64947;BMP280;51469;52.150;4.682;2023-03-05T06:47:39;102161.91;;;9.62
64947;BMP280;51469;52.150;4.682;2023-03-05T06:50:05;102157.16;;;9.71
64947;BMP280;51469;52.150;4.682;2023-03-05T06:52:30;102164.91;;;9.81
64947;BMP280;51469;52.150;4.682;2023-03-05T06:54:55;102169.75;;;9.84
64947;BMP280;51469;52.150;4.682;2023-03-05T06:57:22;102165.06;;;9.84
64947;BMP280;51469;52.150;4.682;2023-03-05T06:59:47;102162.81;;;9.66
64947;BMP280;51469;52.150;4.682;2023-03-05T07:02:13;102178.28;;;9.70
64947;BMP280;51469;52.150;4.682;2023-03-05T07:04:39;102174.09;;;9.64
64947;BMP280;51469;52.150;4.682;2023-03-05T07:07:04;102167.44;;;9.74
64947;BMP280;51469;52.150;4.682;2023-03-05T07:09:30;102171.09;;;9.78
64947;BMP280;51469;52.150;4.682;2023-03-05T07:11:55;102181.66;;;9.88
64947;BMP280;51469;52.150;4.682;2023-03-05T07:14:21;102175.63;;;9.94
64947;BMP280;51469;52.150;4.682;2023-03-05T07:16:46;102170.94;;;9.95
64947;BMP280;51469;52.150;4.682;2023-03-05T07:19:12;102169.34;;;9.94
64947;BMP280;51469;52.150;4.682;2023-03-05T07:21:37;102165.06;;;10.05
64947;BMP280;51469;52.150;4.682;2023-03-05T07:24:03;102164.31;;;9.96
64947;BMP280;51469;52.150;4.682;2023-03-05T07:26:30;102159.97;;;9.74
64947;BMP280;51469;52.150;4.682;2023-03-05T07:28:57;102151.75;;;9.74
64947;BMP280;51469;52.150;4.682;2023-03-05T07:31:24;102145.53;;;9.86
64947;BMP280;51469;52.150;4.682;2023-03-05T07:33:55;102145.44;;;9.82
64947;BMP280;51469;52.150;4.682;2023-03-05T07:36:21;102143.13;;;9.84
64947;BMP280;51469;52.150;4.682;2023-03-05T07:38:46;102146.47;;;9.90
64947;BMP280;51469;52.150;4.682;2023-03-05T07:41:14;102144.34;;;9.95
64947;BMP280;51469;52.150;4.682;2023-03-05T07:43:44;102140.22;;;10.01
64947;BMP280;51469;52.150;4.682;2023-03-05T07:46:13;102137.88;;;10.12
64947;BMP280;51469;52.150;4.682;2023-03-05T07:48:39;102131.91;;;10.10
64947;BMP280;51469;52.150;4.682;2023-03-05T07:51:07;102143.25;;;10.20
64947;BMP280;51469;52.150;4.682;2023-03-05T07:53:34;102151.16;;;10.22
64947;BMP280;51469;52.150;4.682;2023-03-05T07:55:59;102147.50;;;10.42
64947;BMP280;51469;52.150;4.682;2023-03-05T07:58:25;102146.38;;;10.55
64947;BMP280;51469;52.150;4.682;2023-03-05T08:00:50;102149.69;;;10.60
64947;BMP280;51469;52.150;4.682;2023-03-05T08:03:15;102139.41;;;10.57
64947;BMP280;51469;52.150;4.682;2023-03-05T08:05:41;102133.84;;;10.78
64947;BMP280;51469;52.150;4.682;2023-03-05T08:08:07;102137.94;;;10.84
64947;BMP280;51469;52.150;4.682;2023-03-05T08:10:33;102134.34;;;10.95
64947;BMP280;51469;52.150;4.682;2023-03-05T08:12:59;102140.31;;;10.97
64947;BMP280;51469;52.150;4.682;2023-03-05T08:15:24;102128.06;;;11.07
64947;BMP280;51469;52.150;4.682;2023-03-05T08:17:49;102127.13;;;11.15
64947;BMP280;51469;52.150;4.682;2023-03-05T08:20:15;102130.47;;;11.36
64947;BMP280;51469;52.150;4.682;2023-03-05T08:22:40;102133.84;;;11.57
64947;BMP280;51469;52.150;4.682;2023-03-05T08:25:06;102128.50;;;11.76
64947;BMP280;51469;52.150;4.682;2023-03-05T08:27:32;102125.56;;;11.69
64947;BMP280;51469;52.150;4.682;2023-03-05T08:29:57;102132.88;;;11.37
64947;BMP280;51469;52.150;4.682;2023-03-05T08:32:24;102128.53;;;11.09
64947;BMP280;51469;52.150;4.682;2023-03-05T08:34:50;102127.50;;;11.01
64947;BMP280;51469;52.150;4.682;2023-03-05T08:37:15;102133.13;;;10.81
64947;BMP280;51469;52.150;4.682;2023-03-05T08:39:40;102123.16;;;10.88
64947;BMP280;51469;52.150;4.682;2023-03-05T08:42:06;102121.69;;;10.91
64947;BMP280;51469;52.150;4.682;2023-03-05T08:44:31;102117.78;;;10.92
64947;BMP280;51469;52.150;4.682;2023-03-05T08:46:57;102111.16;;;10.81
64947;BMP280;51469;52.150;4.682;2023-03-05T08:49:22;102109.50;;;11.04
64947;BMP280;51469;52.150;4.682;2023-03-05T08:51:47;102105.56;;;11.29
64947;BMP280;51469;52.150;4.682;2023-03-05T08:54:13;102112.16;;;11.40
64947;BMP280;51469;52.150;4.682;2023-03-05T08:56:38;102098.44;;;11.55
64947;BMP280;51469;52.150;4.682;2023-03-05T08:59:04;102100.81;;;11.69
64947;BMP280;51469;52.150;4.682;2023-03-05T09:04:05;102074.78;;;12.09
64947;BMP280;51469;52.150;4.682;2023-03-05T09:06:30;102089.72;;;12.43
64947;BMP280;51469;52.150;4.682;2023-03-05T09:08:55;102088.06;;;12.38
64947;BMP280;51469;52.150;4.682;2023-03-05T09:11:21;102089.09;;;12.65
64947;BMP280;51469;52.150;4.682;2023-03-05T09:13:47;102088.47;;;12.56
64947;BMP280;51469;52.150;4.682;2023-03-05T09:16:15;102078.97;;;12.53
64947;BMP280;51469;52.150;4.682;2023-03-05T09:18:41;102090.44;;;12.40
64947;BMP280;51469;52.150;4.682;2023-03-05T09:21:08;102093.13;;;12.21
64947;BMP280;51469;52.150;4.682;2023-03-05T09:23:34;102086.38;;;12.34
64947;BMP280;51469;52.150;4.682;2023-03-05T09:25:59;102088.00;;;12.69
64947;BMP280;51469;52.150;4.682;2023-03-05T09:28:25;102087.69;;;12.90
64947;BMP280;51469;52.150;4.682;2023-03-05T09:30:50;102090.97;;;12.80
64947;BMP280;51469;52.150;4.682;2023-03-05T09:33:16;102090.97;;;12.99
64947;BMP280;51469;52.150;4.682;2023-03-05T09:35:41;102084.31;;;13.19
64947;BMP280;51469;52.150;4.682;2023-03-05T09:38:07;102086.78;;;13.24
64947;BMP280;51469;52.150;4.682;2023-03-05T09:40:43;102085.22;;;13.23
64947;BMP280;51469;52.150;4.682;2023-03-05T09:48:49;102083.59;;;12.84
64947;BMP280;51469;52.150;4.682;2023-03-05T09:51:20;102081.75;;;12.72
64947;BMP280;51469;52.150;4.682;2023-03-05T09:54:08;102077.03;;;12.73
64947;BMP280;51469;52.150;4.682;2023-03-05T09:56:38;102082.88;;;12.87
64947;BMP280;51469;52.150;4.682;2023-03-05T10:02:02;102076.66;;;12.90
64947;BMP280;51469;52.150;4.682;2023-03-05T10:07:19;102067.59;;;13.08
64947;BMP280;51469;52.150;4.682;2023-03-05T10:12:41;102073.69;;;13.17
64947;BMP280;51469;52.150;4.682;2023-03-05T10:15:14;102067.94;;;13.26
64947;BMP280;51469;52.150;4.682;2023-03-05T10:18:15;102060.28;;;13.38
64947;BMP280;51469;52.150;4.682;2023-03-05T10:20:40;102057.84;;;13.33
64947;BMP280;51469;52.150;4.682;2023-03-05T10:25:53;102044.16;;;13.18
64947;BMP280;51469;52.150;4.682;2023-03-05T10:28:28;102036.28;;;13.39
64947;BMP280;51469;52.150;4.682;2023-03-05T10:31:07;102028.31;;;13.56
64947;BMP280;51469;52.150;4.682;2023-03-05T10:34:00;102029.16;;;13.79
64947;BMP280;51469;52.150;4.682;2023-03-05T10:44:49;102016.47;;;14.01
64947;BMP280;51469;52.150;4.682;2023-03-05T10:47:41;102007.03;;;14.28
64947;BMP280;51469;52.150;4.682;2023-03-05T10:52:54;101996.78;;;14.28
64947;BMP280;51469;52.150;4.682;2023-03-05T10:55:25;101997.06;;;14.20
64947;BMP280;51469;52.150;4.682;2023-03-05T10:57:50;101996.50;;;14.33
64947;BMP280;51469;52.150;4.682;2023-03-05T11:00:23;101987.81;;;14.35
64947;BMP280;51469;52.150;4.682;2023-03-05T11:03:01;101974.34;;;14.30
64947;BMP280;51469;52.150;4.682;2023-03-05T11:14:00;101965.56;;;14.87
64947;BMP280;51469;52.150;4.682;2023-03-05T11:21:38;101954.59;;;14.94
64947;BMP280;51469;52.150;4.682;2023-03-05T11:24:17;101959.94;;;14.80
64947;BMP280;51469;52.150;4.682;2023-03-05T11:26:51;101954.09;;;14.52
64947;BMP280;51469;52.150;4.682;2023-03-05T11:29:22;101951.94;;;14.68
64947;BMP280;51469;52.150;4.682;2023-03-05T11:31:48;101945.69;;;14.74
64947;BMP280;51469;52.150;4.682;2023-03-05T11:37:00;101939.25;;;15.00
64947;BMP280;51469;52.150;4.682;2023-03-05T11:39:28;101931.66;;;14.90
64947;BMP280;51469;52.150;4.682;2023-03-05T11:42:14;101932.47;;;14.94
64947;BMP280;51469;52.150;4.682;2023-03-05T11:44:52;101933.25;;;14.91
64947;BMP280;51469;52.150;4.682;2023-03-05T11:47:32;101924.66;;;15.03
64947;BMP280;51469;52.150;4.682;2023-03-05T11:50:04;101922.38;;;15.12
64947;BMP280;51469;52.150;4.682;2023-03-05T11:52:50;101919.16;;;15.07
64947;BMP280;51469;52.150;4.682;2023-03-05T11:55:18;101908.28;;;15.24
64947;BMP280;51469;52.150;4.682;2023-03-05T11:57:49;101902.59;;;15.10
64947;BMP280;51469;52.150;4.682;2023-03-05T12:00:30;101904.09;;;14.97
64947;BMP280;51469;52.150;4.682;2023-03-05T12:02:58;101902.44;;;14.89
64947;BMP280;51469;52.150;4.682;2023-03-05T12:05:26;101898.13;;;14.95
64947;BMP280;51469;52.150;4.682;2023-03-05T12:07:57;101892.38;;;15.14
64947;BMP280;51469;52.150;4.682;2023-03-05T12:10:24;101887.69;;;15.18
64947;BMP280;51469;52.150;4.682;2023-03-05T12:23:26;101873.25;;;14.95
64947;BMP280;51469;52.150;4.682;2023-03-05T12:25:56;101864.50;;;14.86
64947;BMP280;51469;52.150;4.682;2023-03-05T12:31:11;101853.03;;;14.84
64947;BMP280;51469;52.150;4.682;2023-03-05T12:33:49;101856.59;;;14.88
64947;BMP280;51469;52.150;4.682;2023-03-05T12:41:36;101841.47;;;14.75
64947;BMP280;51469;52.150;4.682;2023-03-05T12:46:37;101839.75;;;14.57
64947;BMP280;51469;52.150;4.682;2023-03-05T12:51:53;101836.13;;;14.16
64947;BMP280;51469;52.150;4.682;2023-03-05T12:54:27;101824.25;;;14.12
64947;BMP280;51469;52.150;4.682;2023-03-05T12:56:55;101814.91;;;14.20
64947;BMP280;51469;52.150;4.682;2023-03-05T12:59:23;101816.97;;;14.30
64947;BMP280;51469;52.150;4.682;2023-03-05T13:01:59;101812.59;;;14.29
64947;BMP280;51469;52.150;4.682;2023-03-05T13:04:31;101804.28;;;14.62
64947;BMP280;51469;52.150;4.682;2023-03-05T13:07:11;101809.81;;;14.62
64947;BMP280;51469;52.150;4.682;2023-03-05T13:09:37;101799.50;;;14.55
64947;BMP280;51469;52.150;4.682;2023-03-05T13:12:08;101792.53;;;14.72
64947;BMP280;51469;52.150;4.682;2023-03-05T13:14:46;101795.81;;;14.85
64947;BMP280;51469;52.150;4.682;2023-03-05T13:17:49;101776.13;;;14.90
64947;BMP280;51469;52.150;4.682;2023-03-05T13:20:35;101777.78;;;15.01
64947;BMP280;51469;52.150;4.682;2023-03-05T13:23:24;101770.81;;;15.18
64947;BMP280;51469;52.150;4.682;2023-03-05T13:28:25;101766.88;;;15.26
64947;BMP280;51469;52.150;4.682;2023-03-05T13:30:56;101759.75;;;15.18
64947;BMP280;51469;52.150;4.682;2023-03-05T13:33:28;101764.28;;;14.89
64947;BMP280;51469;52.150;4.682;2023-03-05T13:35:53;101752.41;;;14.85
64947;BMP280;51469;52.150;4.682;2023-03-05T13:38:25;101743.63;;;14.76
64947;BMP280;51469;52.150;4.682;2023-03-05T13:43:32;101762.31;;;14.46
64947;BMP280;51469;52.150;4.682;2023-03-05T13:45:58;101749.41;;;14.57
64947;BMP280;51469;52.150;4.682;2023-03-05T13:48:25;101749.81;;;14.59
64947;BMP280;51469;52.150;4.682;2023-03-05T13:50:56;101741.94;;;14.61
64947;BMP280;51469;52.150;4.682;2023-03-05T13:53:24;101735.53;;;14.53
64947;BMP280;51469;52.150;4.682;2023-03-05T13:55:52;101742.56;;;14.44
64947;BMP280;51469;52.150;4.682;2023-03-05T13:58:50;101744.19;;;14.45
64947;BMP280;51469;52.150;4.682;2023-03-05T14:04:06;101735.41;;;14.36
64947;BMP280;51469;52.150;4.682;2023-03-05T14:09:29;101720.59;;;14.58
64947;BMP280;51469;52.150;4.682;2023-03-05T14:12:01;101725.72;;;14.56
64947;BMP280;51469;52.150;4.682;2023-03-05T14:14:29;101727.72;;;14.59
64947;BMP280;51469;52.150;4.682;2023-03-05T14:20:06;101722.16;;;14.12
64947;BMP280;51469;52.150;4.682;2023-03-05T14:22:43;101726.41;;;14.06
64947;BMP280;51469;52.150;4.682;2023-03-05T14:27:54;101719.69;;;13.70
64947;BMP280;51469;52.150;4.682;2023-03-05T14:30:21;101711.09;;;13.75
64947;BMP280;51469;52.150;4.682;2023-03-05T14:32:48;101713.22;;;13.89
64947;BMP280;51469;52.150;4.682;2023-03-05T14:35:17;101704.06;;;13.81
64947;BMP280;51469;52.150;4.682;2023-03-05T14:37:45;101693.75;;;13.75
64947;BMP280;51469;52.150;4.682;2023-03-05T14:42:56;101701.69;;;13.47
64947;BMP280;51469;52.150;4.682;2023-03-05T14:45:32;101686.22;;;13.39
64947;BMP280;51469;52.150;4.682;2023-03-05T14:47:59;101675.78;;;13.25
64947;BMP280;51469;52.150;4.682;2023-03-05T14:50:27;101669.56;;;13.32
64947;BMP280;51469;52.150;4.682;2023-03-05T14:52:55;101662.66;;;13.45
64947;BMP280;51469;52.150;4.682;2023-03-05T14:55:24;101657.34;;;13.62
64947;BMP280;51469;52.150;4.682;2023-03-05T14:57:53;101659.03;;;13.70
64947;BMP280;51469;52.150;4.682;2023-03-05T15:00:26;101657.88;;;13.75
64947;BMP280;51469;52.150;4.682;2023-03-05T15:02:52;101634.19;;;13.67
64947;BMP280;51469;52.150;4.682;2023-03-05T15:05:18;101640.88;;;13.69
64947;BMP280;51469;52.150;4.682;2023-03-05T15:07:44;101653.66;;;13.48
64947;BMP280;51469;52.150;4.682;2023-03-05T15:10:14;101655.38;;;13.30
64947;BMP280;51469;52.150;4.682;2023-03-05T15:12:41;101645.91;;;13.27
64947;BMP280;51469;52.150;4.682;2023-03-05T15:15:07;101650.56;;;13.23
64947;BMP280;51469;52.150;4.682;2023-03-05T15:17:35;101653.19;;;13.13
64947;BMP280;51469;52.150;4.682;2023-03-05T15:20:01;101648.16;;;12.92
64947;BMP280;51469;52.150;4.682;2023-03-05T15:22:31;101650.66;;;12.75
64947;BMP280;51469;52.150;4.682;2023-03-05T15:24:56;101648.59;;;12.42
64947;BMP280;51469;52.150;4.682;2023-03-05T15:27:21;101651.06;;;12.06
64947;BMP280;51469;52.150;4.682;2023-03-05T15:29:47;101647.00;;;12.00
64947;BMP280;51469;52.150;4.682;2023-03-05T15:32:12;101649.06;;;11.84
64947;BMP280;51469;52.150;4.682;2023-03-05T15:34:37;101646.47;;;11.72
64947;BMP280;51469;52.150;4.682;2023-03-05T15:37:03;101644.88;;;11.71
64947;BMP280;51469;52.150;4.682;2023-03-05T15:39:28;101639.38;;;11.71
64947;BMP280;51469;52.150;4.682;2023-03-05T15:41:54;101633.69;;;11.60